createdAt,value
2017-04-29T00:00:02.585Z,4.5
2017-04-29T00:05:02.592Z,4.8
2017-04-29T00:10:03.465Z,4.8
2017-04-29T00:15:03.299Z,4.5
2017-04-29T00:20:03.121Z,4.5
2017-04-29T00:25:02.901Z,4.8
2017-04-29T00:30:02.469Z,4.8
2017-04-29T00:35:03.268Z,4.8
2017-04-29T00:40:06.062Z,5.0
2017-04-29T00:45:02.807Z,5.0
2017-04-29T00:50:03.426Z,5.0
2017-04-29T00:55:03.268Z,5.0
2017-04-29T01:00:03.056Z,5.0
2017-04-29T01:05:02.708Z,5.0
2017-04-29T01:10:02.528Z,5.0
2017-04-29T01:15:03.340Z,5.0
2017-04-29T01:20:03.003Z,5.0
2017-04-29T01:25:02.686Z,5.0
2017-04-29T01:30:02.514Z,5.0
2017-04-29T01:35:03.244Z,4.8
2017-04-29T01:40:03.024Z,4.5
2017-04-29T01:45:02.635Z,4.5
2017-04-29T01:50:02.520Z,4.5
2017-04-29T01:55:03.221Z,4.0
2017-04-29T02:00:03.040Z,4.0
2017-04-29T02:05:02.913Z,4.0
2017-04-29T02:10:02.775Z,3.7
2017-04-29T02:15:02.560Z,3.5
2017-04-29T02:20:03.387Z,3.7
2017-04-29T02:25:03.091Z,3.5
2017-04-29T02:30:02.783Z,3.2
2017-04-29T02:35:02.750Z,3.2
2017-04-29T02:40:03.412Z,3.5
2017-04-29T02:45:03.026Z,3.7
2017-04-29T02:50:02.725Z,3.7
2017-04-29T02:55:02.513Z,3.7
2017-04-29T03:00:03.284Z,3.7
2017-04-29T03:05:03.102Z,3.7
2017-04-29T03:10:02.889Z,3.7
2017-04-29T03:15:02.557Z,3.7
2017-04-29T03:20:03.291Z,3.5
2017-04-29T03:25:03.113Z,3.5
2017-04-29T03:30:02.851Z,3.5
2017-04-29T03:35:02.559Z,3.5
2017-04-29T03:40:03.427Z,3.5
2017-04-29T03:45:03.194Z,3.2
2017-04-29T03:50:02.902Z,3.2
2017-04-29T03:55:02.684Z,3.2
2017-04-29T04:00:02.507Z,3.2
2017-04-29T04:05:03.342Z,3.2
2017-04-29T04:10:03.171Z,3.2
2017-04-29T04:15:02.983Z,3.2
2017-04-29T04:20:02.696Z,3.2
2017-04-29T04:25:03.495Z,3.2
2017-04-29T04:30:02.669Z,3.2
2017-04-29T04:35:02.458Z,3.5
2017-04-29T04:40:03.359Z,3.2
2017-04-29T04:45:02.926Z,3.2
2017-04-29T04:50:02.615Z,3.2
2017-04-29T04:55:03.298Z,3.2
2017-04-29T05:00:03.103Z,3.2
2017-04-29T05:05:02.856Z,3.2
2017-04-29T05:10:02.459Z,3.2
2017-04-29T05:15:03.108Z,3.0
2017-04-29T05:20:02.697Z,3.2
2017-04-29T05:25:03.339Z,3.2
2017-04-29T05:30:02.889Z,3.0
2017-04-29T05:35:02.525Z,3.2
2017-04-29T05:40:03.382Z,3.2
2017-04-29T05:45:03.131Z,3.5
2017-04-29T05:50:02.799Z,3.7
2017-04-29T05:55:02.647Z,3.7
2017-04-29T06:00:03.254Z,4.0
2017-04-29T06:05:02.964Z,4.3
2017-04-29T06:10:02.647Z,4.5
2017-04-29T06:15:03.308Z,4.5
2017-04-29T06:20:03.124Z,5.3
2017-04-29T06:25:02.871Z,5.3
2017-04-29T06:30:02.670Z,5.8
2017-04-29T06:35:03.364Z,6.0
2017-04-29T06:40:03.204Z,6.4
2017-04-29T06:45:02.886Z,6.9
2017-04-29T06:50:02.657Z,7.6
2017-04-29T06:55:02.693Z,8.5
2017-04-29T07:00:03.170Z,8.8
2017-04-29T07:05:02.800Z,8.5
2017-04-29T07:10:02.663Z,8.1
2017-04-29T07:15:03.335Z,8.0
2017-04-29T07:20:03.353Z,7.9
2017-04-29T07:25:02.978Z,8.1
2017-04-29T07:30:02.624Z,8.1
2017-04-29T07:35:02.467Z,8.3
2017-04-29T07:40:03.282Z,8.3
2017-04-29T07:45:03.049Z,9.0
2017-04-29T07:50:02.761Z,9.1
2017-04-29T07:55:02.543Z,9.1
2017-04-29T08:00:03.183Z,10.0
2017-04-29T08:05:02.839Z,10.6
2017-04-29T08:10:02.595Z,11.1
2017-04-29T08:15:03.393Z,10.8
2017-04-29T08:20:02.978Z,12.1
2017-04-29T08:25:02.780Z,10.6
2017-04-29T08:30:02.417Z,11.1
2017-04-29T08:35:03.147Z,10.6
2017-04-29T08:40:03.106Z,11.0
2017-04-29T08:45:02.894Z,11.3
2017-04-29T08:50:02.532Z,10.8
2017-04-29T08:55:03.222Z,10.0
2017-04-29T09:00:02.960Z,10.1
2017-04-29T09:05:02.609Z,12.1
2017-04-29T09:10:03.345Z,14.3
2017-04-29T09:15:03.101Z,14.0
2017-04-29T09:20:02.724Z,12.1
2017-04-29T09:25:02.908Z,11.6
2017-04-29T09:30:02.485Z,12.6
2017-04-29T09:35:02.540Z,12.6
2017-04-29T09:40:02.936Z,12.1
2017-04-29T09:45:03.058Z,12.3
2017-04-29T09:50:03.140Z,13.5
2017-04-29T09:55:03.313Z,12.3
2017-04-29T10:00:02.443Z,12.1
2017-04-29T10:05:03.265Z,12.1
2017-04-29T10:10:02.445Z,11.8
2017-04-29T10:15:03.328Z,12.0
2017-04-29T10:20:02.552Z,11.8
2017-04-29T10:25:02.986Z,12.0
2017-04-29T10:30:03.327Z,12.8
2017-04-29T10:35:03.155Z,11.8
2017-04-29T10:40:02.796Z,12.8
2017-04-29T10:45:03.166Z,12.6
2017-04-29T10:50:02.532Z,13.1
2017-04-29T10:55:02.537Z,13.8
2017-04-29T11:00:02.849Z,15.0
2017-04-29T11:05:02.933Z,14.8
2017-04-29T11:10:03.326Z,13.8
2017-04-29T11:15:02.905Z,13.8
2017-04-29T11:20:03.050Z,14.0
2017-04-29T11:25:02.588Z,14.5
2017-04-29T11:30:03.191Z,12.3
2017-04-29T11:35:02.586Z,13.1
2017-04-29T11:40:02.513Z,13.8
2017-04-29T11:45:03.281Z,14.1
2017-04-29T11:50:02.877Z,14.0
2017-04-29T11:55:02.770Z,15.5
2017-04-29T12:00:02.764Z,13.8
2017-04-29T12:05:03.080Z,16.0
2017-04-29T12:10:02.792Z,15.1
2017-04-29T12:15:02.643Z,15.8
2017-04-29T12:20:02.980Z,15.8
2017-04-29T12:25:02.645Z,15.8
2017-04-29T12:30:03.283Z,15.1
2017-04-29T12:35:03.005Z,14.0
2017-04-29T12:40:02.603Z,12.8
2017-04-29T12:45:03.287Z,13.1
2017-04-29T12:50:03.385Z,13.3
2017-04-29T12:55:02.674Z,13.1
2017-04-29T13:00:03.078Z,13.8
2017-04-29T13:05:02.897Z,13.6
2017-04-29T13:10:02.614Z,13.8
2017-04-29T13:15:03.013Z,13.3
2017-04-29T13:20:02.453Z,13.5
2017-04-29T13:25:02.993Z,14.3
2017-04-29T13:30:03.130Z,14.5
2017-04-29T13:35:02.750Z,14.1
2017-04-29T13:40:03.173Z,16.2
2017-04-29T13:45:03.391Z,13.6
2017-04-29T13:50:02.763Z,13.6
2017-04-29T13:55:03.047Z,14.1
2017-04-29T14:00:02.479Z,14.3
2017-04-29T14:05:03.171Z,14.3
2017-04-29T14:10:02.679Z,14.5
2017-04-29T14:15:03.215Z,14.1
2017-04-29T14:20:02.694Z,14.1
2017-04-29T14:25:03.300Z,13.5
2017-04-29T14:30:02.809Z,13.8
2017-04-29T14:35:02.644Z,13.8
2017-04-29T14:40:02.773Z,14.0
2017-04-29T14:45:03.099Z,13.5
2017-04-29T14:50:02.646Z,13.6
2017-04-29T14:55:02.440Z,14.0
2017-04-29T15:00:02.737Z,13.6
2017-04-29T15:05:02.984Z,14.5
2017-04-29T15:10:03.193Z,14.3
2017-04-29T15:15:02.515Z,14.3
2017-04-29T15:20:02.748Z,14.6
2017-04-29T15:25:03.109Z,15.1
2017-04-29T15:30:03.217Z,13.6
2017-04-29T15:35:02.872Z,15.6
2017-04-29T15:40:03.102Z,15.6
2017-04-29T15:45:02.693Z,16.6
2017-04-29T15:50:03.399Z,16.7
2017-04-29T15:55:02.848Z,16.6
2017-04-29T16:00:02.550Z,15.1
2017-04-29T16:05:02.604Z,13.6
2017-04-29T16:10:02.958Z,15.8
2017-04-29T16:15:02.721Z,17.0
2017-04-29T16:20:03.230Z,17.3
2017-04-29T16:25:03.394Z,15.8
2017-04-29T16:30:02.614Z,14.3
2017-04-29T16:35:02.674Z,13.3
2017-04-29T16:40:02.744Z,16.6
2017-04-29T16:45:03.225Z,16.7
2017-04-29T16:50:03.356Z,17.0
2017-04-29T16:55:03.406Z,17.2
2017-04-29T17:00:03.121Z,17.0
2017-04-29T17:05:03.158Z,15.5
2017-04-29T17:10:03.268Z,16.2
2017-04-29T17:15:02.409Z,15.0
2017-04-29T17:20:02.412Z,16.2
2017-04-29T17:25:02.572Z,17.2
2017-04-29T17:30:02.576Z,16.3
2017-04-29T17:35:03.389Z,14.8
2017-04-29T17:40:02.523Z,14.3
2017-04-29T17:45:03.289Z,14.5
2017-04-29T17:50:03.160Z,14.3
2017-04-29T17:55:03.120Z,14.3
2017-04-29T18:00:02.968Z,13.8
2017-04-29T18:05:02.760Z,13.6
2017-04-29T18:10:02.434Z,13.5
2017-04-29T18:15:03.105Z,13.5
2017-04-29T18:20:02.898Z,12.6
2017-04-29T18:25:02.594Z,11.6
2017-04-29T18:30:02.471Z,11.1
2017-04-29T18:35:03.096Z,11.0
2017-04-29T18:40:02.956Z,10.8
2017-04-29T18:45:02.788Z,10.6
2017-04-29T18:50:02.556Z,10.3
2017-04-29T18:55:02.510Z,10.1
2017-04-29T19:00:02.522Z,10.1
2017-04-29T19:05:03.225Z,10.0
2017-04-29T19:10:03.033Z,9.6
2017-04-29T19:15:02.794Z,9.6
2017-04-29T19:20:02.834Z,9.1
2017-04-29T19:25:02.661Z,9.0
2017-04-29T19:30:02.497Z,9.0
2017-04-29T19:35:02.478Z,8.8
2017-04-29T19:40:03.362Z,8.6
2017-04-29T19:45:03.206Z,8.3
2017-04-29T19:50:02.867Z,8.3
2017-04-29T19:55:02.837Z,8.1
2017-04-29T20:00:02.589Z,8.0
2017-04-29T20:05:02.425Z,7.6
2017-04-29T20:10:03.074Z,7.5
2017-04-29T20:15:02.729Z,7.5
2017-04-29T20:20:02.458Z,7.4
2017-04-29T20:25:03.275Z,7.4
2017-04-29T20:30:03.050Z,7.4
2017-04-29T20:35:02.650Z,7.4
2017-04-29T20:40:02.542Z,7.1
2017-04-29T20:45:03.228Z,7.4
2017-04-29T20:50:03.011Z,7.1
2017-04-29T20:55:02.814Z,7.0
2017-04-29T21:00:02.594Z,6.9
2017-04-29T21:05:03.400Z,6.9
2017-04-29T21:10:03.105Z,7.1
2017-04-29T21:15:02.844Z,7.0
2017-04-29T21:20:02.647Z,6.9
2017-04-29T21:25:03.287Z,6.9
2017-04-29T21:30:02.963Z,6.6
2017-04-29T21:35:02.713Z,6.6
2017-04-29T21:40:02.505Z,6.9
2017-04-29T21:45:03.137Z,6.5
2017-04-29T21:50:02.720Z,6.5
2017-04-29T21:55:03.372Z,6.5
2017-04-29T22:00:02.966Z,6.4
2017-04-29T22:05:02.746Z,6.0
2017-04-29T22:10:02.510Z,6.0
2017-04-29T22:15:03.274Z,6.1
2017-04-29T22:20:03.123Z,6.1
2017-04-29T22:25:02.889Z,5.9
2017-04-29T22:30:02.485Z,5.8
2017-04-29T22:35:03.130Z,5.8
2017-04-29T22:40:02.929Z,5.8
2017-04-29T22:45:02.680Z,5.5
2017-04-29T22:50:03.422Z,5.4
2017-04-29T22:55:03.174Z,5.5
2017-04-29T23:00:02.909Z,5.4
2017-04-29T23:05:02.720Z,5.4
2017-04-29T23:10:02.546Z,5.3
2017-04-29T23:15:03.180Z,5.0
2017-04-29T23:20:02.850Z,5.0
2017-04-29T23:25:02.544Z,5.0
2017-04-29T23:30:03.262Z,5.0
2017-04-29T23:35:03.035Z,5.0
2017-04-29T23:40:02.836Z,5.0
2017-04-29T23:45:02.525Z,5.0
2017-04-29T23:50:03.228Z,5.0
2017-04-29T23:55:03.004Z,5.0
